sensor_id;sensor_type;location;lat;lon;timestamp;P1;durP1;ratioP1;P2;durP2;ratioP2
74626;SDS011;63132;52.268;5.192;2023-03-25T17:52:08;31.70;;;5.63;;
74626;SDS011;63132;52.268;5.192;2023-03-25T17:54:34;29.60;;;5.53;;
74626;SDS011;63132;52.268;5.192;2023-03-25T17:57:01;38.20;;;5.00;;
74626;SDS011;63132;52.268;5.192;2023-03-25T17:59:30;19.77;;;3.58;;
74626;SDS011;63132;52.268;5.192;2023-03-25T18:01:55;30.55;;;5.50;;
74626;SDS011;63132;52.268;5.192;2023-03-25T18:04:21;24.73;;;3.58;;
74626;SDS011;63132;52.268;5.192;2023-03-25T18:06:46;21.67;;;3.67;;
74626;SDS011;63132;52.268;5.192;2023-03-25T18:09:16;24.00;;;4.57;;
74626;SDS011;63132;52.268;5.192;2023-03-25T18:11:43;21.77;;;3.67;;
74626;SDS011;63132;52.268;5.192;2023-03-25T18:14:10;23.70;;;3.85;;
74626;SDS011;63132;52.268;5.192;2023-03-25T18:16:35;25.85;;;4.15;;
74626;SDS011;63132;52.268;5.192;2023-03-25T18:19:00;23.37;;;4.00;;
74626;SDS011;63132;52.268;5.192;2023-03-25T18:21:26;18.65;;;3.20;;
74626;SDS011;63132;52.268;5.192;2023-03-25T18:23:51;18.10;;;4.57;;
74626;SDS011;63132;52.268;5.192;2023-03-25T18:26:17;28.57;;;2.93;;
74626;SDS011;63132;52.268;5.192;2023-03-25T18:28:43;16.90;;;2.67;;
74626;SDS011;63132;52.268;5.192;2023-03-25T18:31:10;26.98;;;3.65;;
74626;SDS011;63132;52.268;5.192;2023-03-25T18:33:43;26.48;;;2.53;;
74626;SDS011;63132;52.268;5.192;2023-03-25T18:36:10;12.10;;;2.47;;
74626;SDS011;63132;52.268;5.192;2023-03-25T18:38:36;17.08;;;3.03;;
74626;SDS011;63132;52.268;5.192;2023-03-25T18:41:01;10.18;;;2.88;;
74626;SDS011;63132;52.268;5.192;2023-03-25T18:43:27;9.05;;;2.47;;
74626;SDS011;63132;52.268;5.192;2023-03-25T18:45:53;7.40;;;1.65;;
74626;SDS011;63132;52.268;5.192;2023-03-25T18:48:19;11.13;;;2.20;;
74626;SDS011;63132;52.268;5.192;2023-03-25T18:50:55;9.77;;;2.25;;
74626;SDS011;63132;52.268;5.192;2023-03-25T18:53:23;10.93;;;2.35;;
74626;SDS011;63132;52.268;5.192;2023-03-25T18:55:50;14.77;;;2.80;;
74626;SDS011;63132;52.268;5.192;2023-03-25T18:58:16;10.02;;;2.33;;
74626;SDS011;63132;52.268;5.192;2023-03-25T19:00:47;7.68;;;2.30;;
74626;SDS011;63132;52.268;5.192;2023-03-25T19:03:16;16.20;;;2.70;;
74626;SDS011;63132;52.268;5.192;2023-03-25T19:05:42;12.35;;;2.75;;
74626;SDS011;63132;52.268;5.192;2023-03-25T19:08:18;13.65;;;3.45;;
74626;SDS011;63132;52.268;5.192;2023-03-25T19:10:44;13.32;;;3.05;;
74626;SDS011;63132;52.268;5.192;2023-03-25T19:13:11;21.42;;;3.17;;
74626;SDS011;63132;52.268;5.192;2023-03-25T19:18:02;16.60;;;3.65;;
74626;SDS011;63132;52.268;5.192;2023-03-25T19:20:29;11.43;;;3.10;;
74626;SDS011;63132;52.268;5.192;2023-03-25T19:22:57;17.48;;;3.90;;
74626;SDS011;63132;52.268;5.192;2023-03-25T19:25:24;19.92;;;4.43;;
74626;SDS011;63132;52.268;5.192;2023-03-25T19:27:50;17.83;;;3.78;;
74626;SDS011;63132;52.268;5.192;2023-03-25T19:30:17;22.15;;;4.43;;
74626;SDS011;63132;52.268;5.192;2023-03-25T19:32:44;17.73;;;3.63;;
74626;SDS011;63132;52.268;5.192;2023-03-25T19:35:11;11.75;;;3.38;;
74626;SDS011;63132;52.268;5.192;2023-03-25T19:37:38;13.60;;;3.47;;
74626;SDS011;63132;52.268;5.192;2023-03-25T19:40:11;19.27;;;4.97;;
74626;SDS011;63132;52.268;5.192;2023-03-25T19:42:38;15.45;;;4.15;;
74626;SDS011;63132;52.268;5.192;2023-03-25T19:45:04;16.92;;;4.95;;
74626;SDS011;63132;52.268;5.192;2023-03-25T19:47:31;21.52;;;5.55;;
74626;SDS011;63132;52.268;5.192;2023-03-25T19:49:57;13.13;;;3.90;;
74626;SDS011;63132;52.268;5.192;2023-03-25T19:52:23;15.03;;;3.40;;
74626;SDS011;63132;52.268;5.192;2023-03-25T19:54:49;20.50;;;4.30;;
74626;SDS011;63132;52.268;5.192;2023-03-25T19:57:15;14.48;;;4.13;;
74626;SDS011;63132;52.268;5.192;2023-03-25T19:59:41;18.45;;;4.50;;
74626;SDS011;63132;52.268;5.192;2023-03-25T20:02:08;23.52;;;4.40;;
74626;SDS011;63132;52.268;5.192;2023-03-25T20:04:34;23.70;;;4.82;;
74626;SDS011;63132;52.268;5.192;2023-03-25T20:07:00;15.60;;;4.72;;
74626;SDS011;63132;52.268;5.192;2023-03-25T20:09:25;23.52;;;5.57;;
74626;SDS011;63132;52.268;5.192;2023-03-25T20:11:54;23.30;;;5.75;;
74626;SDS011;63132;52.268;5.192;2023-03-25T20:14:19;33.45;;;6.03;;
74626;SDS011;63132;52.268;5.192;2023-03-25T20:16:45;22.27;;;5.72;;
74626;SDS011;63132;52.268;5.192;2023-03-25T20:19:10;23.80;;;5.40;;
74626;SDS011;63132;52.268;5.192;2023-03-25T20:21:35;27.93;;;5.43;;
74626;SDS011;63132;52.268;5.192;2023-03-25T20:24:01;22.52;;;4.63;;
74626;SDS011;63132;52.268;5.192;2023-03-25T20:26:26;27.43;;;5.00;;
74626;SDS011;63132;52.268;5.192;2023-03-25T20:28:52;21.77;;;4.70;;
74626;SDS011;63132;52.268;5.192;2023-03-25T20:31:18;14.50;;;4.22;;
74626;SDS011;63132;52.268;5.192;2023-03-25T20:33:45;20.95;;;4.63;;
74626;SDS011;63132;52.268;5.192;2023-03-25T20:36:12;20.38;;;4.80;;
74626;SDS011;63132;52.268;5.192;2023-03-25T20:38:37;40.42;;;5.75;;
74626;SDS011;63132;52.268;5.192;2023-03-25T20:41:03;20.75;;;5.07;;
74626;SDS011;63132;52.268;5.192;2023-03-25T20:43:28;22.15;;;5.47;;
74626;SDS011;63132;52.268;5.192;2023-03-25T20:45:55;26.20;;;5.13;;
74626;SDS011;63132;52.268;5.192;2023-03-25T20:48:21;30.77;;;6.25;;
74626;SDS011;63132;52.268;5.192;2023-03-25T20:50:48;25.17;;;5.78;;
74626;SDS011;63132;52.268;5.192;2023-03-25T20:53:13;24.90;;;5.95;;
74626;SDS011;63132;52.268;5.192;2023-03-25T20:55:40;25.58;;;4.72;;
74626;SDS011;63132;52.268;5.192;2023-03-25T20:58:06;24.42;;;5.05;;
74626;SDS011;63132;52.268;5.192;2023-03-25T21:00:32;34.33;;;7.35;;
74626;SDS011;63132;52.268;5.192;2023-03-25T21:02:58;29.95;;;6.32;;
74626;SDS011;63132;52.268;5.192;2023-03-25T21:05:23;20.60;;;7.13;;
74626;SDS011;63132;52.268;5.192;2023-03-25T21:07:51;26.35;;;4.78;;
74626;SDS011;63132;52.268;5.192;2023-03-25T21:10:16;26.63;;;5.37;;
74626;SDS011;63132;52.268;5.192;2023-03-25T21:12:42;23.90;;;4.50;;
74626;SDS011;63132;52.268;5.192;2023-03-25T21:15:07;20.42;;;4.53;;
74626;SDS011;63132;52.268;5.192;2023-03-25T21:19:59;20.20;;;4.18;;
74626;SDS011;63132;52.268;5.192;2023-03-25T21:22:24;16.10;;;4.20;;
74626;SDS011;63132;52.268;5.192;2023-03-25T21:27:16;18.40;;;4.55;;
74626;SDS011;63132;52.268;5.192;2023-03-25T21:29:41;13.97;;;3.57;;
74626;SDS011;63132;52.268;5.192;2023-03-25T21:32:07;17.38;;;3.72;;
74626;SDS011;63132;52.268;5.192;2023-03-25T21:34:35;20.65;;;3.53;;
74626;SDS011;63132;52.268;5.192;2023-03-25T21:37:00;23.70;;;4.55;;
74626;SDS011;63132;52.268;5.192;2023-03-25T21:39:27;15.82;;;3.28;;
74626;SDS011;63132;52.268;5.192;2023-03-25T21:41:53;8.48;;;3.22;;
74626;SDS011;63132;52.268;5.192;2023-03-25T21:44:18;21.53;;;4.53;;
74626;SDS011;63132;52.268;5.192;2023-03-25T21:46:43;18.52;;;4.03;;
74626;SDS011;63132;52.268;5.192;2023-03-25T21:49:09;8.98;;;3.13;;
